createdAt,value
2023-02-06T00:00:11.028Z,103757.22
2023-02-06T00:01:02.537Z,103757.22
2023-02-06T00:01:53.978Z,103754.59
2023-02-06T00:02:45.588Z,103755.63
2023-02-06T00:03:37.096Z,103758.03
2023-02-06T00:04:28.536Z,103750.31
2023-02-06T00:05:20.020Z,103754.81
2023-02-06T00:06:11.558Z,103760.84
2023-02-06T00:07:03.053Z,103760.44
2023-02-06T00:07:54.909Z,103757.53
2023-02-06T00:08:46.770Z,103762.94
2023-02-06T00:09:38.220Z,103754.31
2023-02-06T00:10:29.730Z,103756.44
2023-02-06T00:11:21.726Z,103749.59
2023-02-06T00:12:13.861Z,103751.94
2023-02-06T00:13:05.319Z,103754.75
2023-02-06T00:13:56.985Z,103750.38
2023-02-06T00:14:48.493Z,103749.47
2023-02-06T00:15:40.117Z,103746.91
2023-02-06T00:16:33.820Z,103742.28
2023-02-06T00:17:25.923Z,103748.72
2023-02-06T00:18:17.409Z,103747.97
2023-02-06T00:19:09.022Z,103744.41
2023-02-06T00:20:00.735Z,103751.19
2023-02-06T00:20:52.442Z,103748.88
2023-02-06T00:21:44.149Z,103741.34
2023-02-06T00:22:35.936Z,103744.34
2023-02-06T00:23:27.367Z,103747.34
2023-02-06T00:24:19.084Z,103755.03
2023-02-06T00:25:10.683Z,103749.06
2023-02-06T00:26:02.154Z,103746.91
2023-02-06T00:26:53.693Z,103746.78
2023-02-06T00:27:45.427Z,103750.47
2023-02-06T00:28:37.365Z,103748.50
2023-02-06T00:29:29.101Z,103746.03
2023-02-06T00:30:21.132Z,103746.44
2023-02-06T00:31:13.174Z,103745.38
2023-02-06T00:32:05.256Z,103742.81
2023-02-06T00:32:57.885Z,103747.66
2023-02-06T00:33:49.498Z,103742.38
2023-02-06T00:34:40.972Z,103745.38
2023-02-06T00:35:32.462Z,103752.75
2023-02-06T00:36:24.054Z,103744.88
2023-02-06T00:37:17.585Z,103740.66
2023-02-06T00:38:11.231Z,103741.72
2023-02-06T00:39:03.529Z,103740.38
2023-02-06T00:39:55.111Z,103736.50
2023-02-06T00:40:47.547Z,103737.59
2023-02-06T00:41:40.278Z,103732.28
2023-02-06T00:42:31.764Z,103736.84
2023-02-06T00:43:23.955Z,103732.59
2023-02-06T00:44:15.767Z,103733.94
2023-02-06T00:45:08.172Z,103728.47
2023-02-06T00:45:59.910Z,103724.09
2023-02-06T00:46:51.754Z,103726.34
2023-02-06T00:47:43.207Z,103727.22
2023-02-06T00:48:35.028Z,103729.78
2023-02-06T00:49:27.935Z,103727.22
2023-02-06T00:50:19.816Z,103727.97
2023-02-06T00:51:11.475Z,103724.91
2023-02-06T00:52:02.977Z,103721.13
2023-02-06T00:52:54.507Z,103725.91
2023-02-06T00:53:46.165Z,103725.16
2023-02-06T00:54:38.075Z,103725.59
2023-02-06T00:55:29.559Z,103725.41
2023-02-06T00:56:21.516Z,103726.75
2023-02-06T00:57:13.251Z,103730.19
2023-02-06T00:58:06.088Z,103726.41
2023-02-06T00:58:57.988Z,103729.53
2023-02-06T00:59:49.718Z,103725.91
2023-02-06T01:00:41.457Z,103734.91
2023-02-06T01:01:33.242Z,103732.00
2023-02-06T01:02:25.398Z,103736.63
2023-02-06T01:03:17.304Z,103739.22
2023-02-06T01:04:09.011Z,103735.38
2023-02-06T01:05:03.170Z,103737.19
2023-02-06T01:05:54.644Z,103730.66
2023-02-06T01:06:46.656Z,103732.00
2023-02-06T01:07:39.890Z,103733.31
2023-02-06T01:08:32.692Z,103736.09
2023-02-06T01:09:24.360Z,103734.19
2023-02-06T01:10:15.987Z,103741.00
2023-02-06T01:11:16.097Z,103734.88
2023-02-06T01:12:07.610Z,103741.28
2023-02-06T01:12:59.129Z,103741.34
2023-02-06T01:13:51.321Z,103743.22
2023-02-06T01:14:43.176Z,103744.34
2023-02-06T01:15:37.361Z,103748.94
2023-02-06T01:16:28.972Z,103747.84
2023-02-06T01:17:20.450Z,103746.44
2023-02-06T01:18:12.421Z,103747.56
2023-02-06T01:19:05.071Z,103752.50
2023-02-06T01:19:57.445Z,103745.41
2023-02-06T01:20:48.903Z,103757.47
2023-02-06T01:21:40.434Z,103750.31
2023-02-06T01:22:34.914Z,103742.31
2023-02-06T01:23:26.403Z,103748.16
2023-02-06T01:24:17.979Z,103751.31
2023-02-06T01:25:10.744Z,103748.56
2023-02-06T01:26:07.962Z,103754.41
2023-02-06T01:27:00.102Z,103750.22
2023-02-06T01:27:51.709Z,103746.34
2023-02-06T01:28:46.013Z,103757.31
2023-02-06T01:29:38.102Z,103742.69
2023-02-06T01:30:29.637Z,103748.56
2023-02-06T01:31:25.989Z,103744.00
2023-02-06T01:32:17.804Z,103751.34
2023-02-06T01:33:09.227Z,103753.53
2023-02-06T01:34:01.830Z,103752.44
2023-02-06T01:34:53.275Z,103752.09
2023-02-06T01:35:45.208Z,103759.59
2023-02-06T01:36:36.646Z,103752.31
2023-02-06T01:37:30.266Z,103762.38
2023-02-06T01:38:21.887Z,103749.41
2023-02-06T01:39:13.366Z,103758.72
2023-02-06T01:40:08.391Z,103762.00
2023-02-06T01:41:01.270Z,103765.31
2023-02-06T01:41:52.723Z,103760.94
2023-02-06T01:42:44.656Z,103759.84
2023-02-06T01:43:41.039Z,103766.44
2023-02-06T01:44:34.053Z,103766.22
2023-02-06T01:45:25.506Z,103759.69
2023-02-06T01:46:16.957Z,103757.84
2023-02-06T01:47:10.934Z,103758.56
2023-02-06T01:48:08.548Z,103766.06
2023-02-06T01:49:01.703Z,103763.31
2023-02-06T01:49:53.669Z,103761.13
2023-02-06T01:50:51.904Z,103753.44
2023-02-06T01:51:44.662Z,103768.78
2023-02-06T01:52:36.421Z,103773.00
2023-02-06T01:53:29.991Z,103761.50
2023-02-06T01:54:22.266Z,103766.63
2023-02-06T01:55:14.407Z,103763.91
2023-02-06T01:56:08.633Z,103762.06
2023-02-06T01:57:06.571Z,103769.56
2023-02-06T01:58:01.059Z,103765.03
2023-02-06T01:58:58.227Z,103767.56
2023-02-06T01:59:54.635Z,103767.56
2023-02-06T02:00:47.625Z,103763.19
2023-02-06T02:01:40.925Z,103764.81
2023-02-06T02:02:33.224Z,103763.00
2023-02-06T02:03:26.119Z,103763.75
2023-02-06T02:04:21.343Z,103768.50
2023-02-06T02:05:13.293Z,103769.22
2023-02-06T02:06:13.273Z,103765.78
2023-02-06T02:07:18.968Z,103762.25
2023-02-06T02:08:18.306Z,103761.53
2023-02-06T02:09:09.844Z,103763.00
2023-02-06T02:10:01.768Z,103766.28
2023-02-06T02:10:53.412Z,103770.50
2023-02-06T02:11:44.902Z,103765.41
2023-02-06T02:12:36.602Z,103769.94
2023-02-06T02:13:28.329Z,103764.44
2023-02-06T02:14:20.205Z,103766.84
2023-02-06T02:15:12.547Z,103759.91
2023-02-06T02:16:13.321Z,103762.47
2023-02-06T02:17:24.776Z,103757.00
2023-02-06T02:18:26.590Z,103756.06
2023-02-06T02:19:20.925Z,103759.69
2023-02-06T02:20:22.591Z,103758.44
2023-02-06T02:21:32.475Z,103752.78
2023-02-06T02:22:46.814Z,103759.75
2023-02-06T02:23:49.475Z,103752.63
2023-02-06T02:25:25.239Z,103752.97
2023-02-06T02:27:05.878Z,103745.53
2023-02-06T02:28:28.377Z,103747.38
2023-02-06T02:29:48.888Z,103748.50
2023-02-06T02:31:02.970Z,103749.22
2023-02-06T02:32:27.614Z,103747.19
2023-02-06T02:33:43.624Z,103745.38
2023-02-06T02:35:01.130Z,103735.69
2023-02-06T02:36:07.502Z,103738.59
2023-02-06T02:37:30.735Z,103732.59
2023-02-06T02:38:37.509Z,103737.50
2023-02-06T02:39:46.382Z,103744.66
2023-02-06T02:40:51.573Z,103744.66
2023-02-06T02:42:28.582Z,103748.13
2023-02-06T02:43:28.782Z,103748.09
2023-02-06T02:44:30.082Z,103742.25
2023-02-06T02:45:25.869Z,103741.66
2023-02-06T02:46:27.944Z,103746.03
2023-02-06T02:47:26.968Z,103748.59
2023-02-06T02:48:29.837Z,103747.31
2023-02-06T02:49:28.959Z,103749.50
2023-02-06T02:50:21.328Z,103753.84
2023-02-06T02:51:14.215Z,103748.34
2023-02-06T02:52:06.367Z,103746.88
2023-02-06T02:52:59.923Z,103747.06
2023-02-06T02:53:51.475Z,103742.66
2023-02-06T02:54:43.024Z,103747.22
2023-02-06T02:55:35.004Z,103738.28
2023-02-06T02:56:29.918Z,103740.66
2023-02-06T02:57:28.434Z,103741.03
2023-02-06T02:58:26.579Z,103743.25
2023-02-06T02:59:25.351Z,103740.53
2023-02-06T03:00:20.382Z,103751.84
2023-02-06T03:01:19.468Z,103745.06
2023-02-06T03:02:28.494Z,103750.03
2023-02-06T03:03:25.362Z,103752.03
2023-02-06T03:04:35.369Z,103745.31
2023-02-06T03:05:28.062Z,103751.91
2023-02-06T03:06:41.218Z,103750.97
2023-02-06T03:07:36.135Z,103754.81
2023-02-06T03:08:33.654Z,103753.38
2023-02-06T03:09:47.896Z,103759.94
2023-02-06T03:10:53.468Z,103766.16
2023-02-06T03:12:03.507Z,103766.56
2023-02-06T03:13:17.939Z,103768.59
2023-02-06T03:14:27.329Z,103769.84
2023-02-06T03:15:30.765Z,103766.19
2023-02-06T03:16:43.112Z,103773.69
2023-02-06T03:18:00.512Z,103768.19
2023-02-06T03:18:57.658Z,103774.03
2023-02-06T03:19:56.700Z,103776.25
2023-02-06T03:20:50.921Z,103776.06
2023-02-06T03:21:47.347Z,103774.97
2023-02-06T03:22:45.093Z,103781.34
2023-02-06T03:23:41.339Z,103776.44
2023-02-06T03:24:38.961Z,103783.53
2023-02-06T03:25:38.784Z,103775.31
2023-02-06T03:26:33.339Z,103791.19
2023-02-06T03:27:28.317Z,103776.03
2023-02-06T03:28:28.427Z,103787.34
2023-02-06T03:29:20.545Z,103784.97
2023-02-06T03:30:16.464Z,103775.28
2023-02-06T03:31:15.251Z,103786.97
2023-02-06T03:32:29.759Z,103783.50
2023-02-06T03:33:30.538Z,103781.31
2023-02-06T03:34:42.197Z,103778.94
2023-02-06T03:35:37.390Z,103781.13
2023-02-06T03:36:29.571Z,103773.63
2023-02-06T03:37:23.139Z,103775.09
2023-02-06T03:38:14.978Z,103779.47
2023-02-06T03:39:07.580Z,103777.28
2023-02-06T03:40:02.066Z,103780.03
2023-02-06T03:40:59.072Z,103778.03
2023-02-06T03:41:55.407Z,103777.47
2023-02-06T03:42:56.191Z,103766.69
2023-02-06T03:43:52.655Z,103770.34
2023-02-06T03:44:51.790Z,103778.94
2023-02-06T03:45:48.493Z,103768.72
2023-02-06T03:46:43.782Z,103771.44
2023-02-06T03:47:40.042Z,103776.75
2023-02-06T03:48:41.845Z,103778.72
2023-02-06T03:49:39.585Z,103769.22
2023-02-06T03:50:35.575Z,103776.56
2023-02-06T03:51:34.933Z,103774.00
2023-02-06T03:52:36.683Z,103767.59
2023-02-06T03:53:29.968Z,103774.00
2023-02-06T03:54:26.730Z,103773.47
2023-02-06T03:55:22.959Z,103770.41
2023-02-06T03:56:30.033Z,103771.50
2023-02-06T03:57:26.224Z,103774.06
2023-02-06T03:58:17.818Z,103774.94
2023-02-06T03:59:09.652Z,103776.25
2023-02-06T04:00:01.467Z,103773.31
2023-02-06T04:00:54.009Z,103774.59
2023-02-06T04:01:51.427Z,103768.41
2023-02-06T04:02:47.773Z,103772.44
2023-02-06T04:03:39.253Z,103768.22
2023-02-06T04:04:36.829Z,103770.25
2023-02-06T04:05:28.557Z,103771.88
2023-02-06T04:06:20.572Z,103767.69
2023-02-06T04:07:24.886Z,103771.88
2023-02-06T04:08:16.438Z,103770.97
2023-02-06T04:09:07.871Z,103766.00
2023-02-06T04:09:59.575Z,103773.53
2023-02-06T04:10:51.069Z,103771.34
2023-02-06T04:11:42.787Z,103772.06
2023-02-06T04:12:34.420Z,103762.56
2023-02-06T04:13:26.025Z,103770.25
2023-02-06T04:14:17.703Z,103766.59
2023-02-06T04:15:09.887Z,103759.66
2023-02-06T04:16:02.570Z,103762.03
2023-02-06T04:16:54.032Z,103761.84
2023-02-06T04:17:58.952Z,103758.94
2023-02-06T04:18:51.725Z,103767.88
2023-02-06T04:19:43.316Z,103771.31
2023-02-06T04:20:40.968Z,103763.50
2023-02-06T04:21:32.657Z,103768.25
2023-02-06T04:22:24.412Z,103770.97
2023-02-06T04:23:16.536Z,103771.16
2023-02-06T04:24:08.573Z,103764.06
2023-02-06T04:25:00.314Z,103766.25
2023-02-06T04:25:51.798Z,103761.28
2023-02-06T04:26:43.279Z,103770.41
2023-02-06T04:27:34.804Z,103777.19
2023-02-06T04:28:26.412Z,103772.44
2023-02-06T04:29:18.225Z,103782.31
2023-02-06T04:30:10.280Z,103780.09
2023-02-06T04:31:03.470Z,103782.47
2023-02-06T04:32:02.203Z,103779.72
2023-02-06T04:32:54.596Z,103777.91
2023-02-06T04:33:46.069Z,103774.25
2023-02-06T04:34:39.180Z,103775.91
2023-02-06T04:35:31.019Z,103780.66
2023-02-06T04:36:22.542Z,103772.78
2023-02-06T04:37:14.242Z,103778.84
2023-02-06T04:38:07.635Z,103771.53
2023-02-06T04:38:59.461Z,103777.75
2023-02-06T04:39:50.922Z,103772.63
2023-02-06T04:40:43.056Z,103765.50
2023-02-06T04:41:34.526Z,103760.97
2023-02-06T04:42:25.991Z,103767.53
2023-02-06T04:43:17.469Z,103761.31
2023-02-06T04:44:09.182Z,103762.94
2023-02-06T04:45:00.653Z,103765.31
2023-02-06T04:45:52.551Z,103762.59
2023-02-06T04:46:45.585Z,103760.75
2023-02-06T04:47:37.362Z,103768.22
2023-02-06T04:48:29.061Z,103767.13
2023-02-06T04:49:20.860Z,103764.41
2023-02-06T04:50:12.331Z,103767.34
2023-02-06T04:51:04.348Z,103771.34
2023-02-06T04:51:56.373Z,103780.09
2023-02-06T04:52:48.122Z,103770.97
2023-02-06T04:53:39.697Z,103775.00
2023-02-06T04:54:32.813Z,103780.84
2023-02-06T04:55:24.600Z,103779.56
2023-02-06T04:56:17.271Z,103776.66
2023-02-06T04:57:08.745Z,103783.22
2023-02-06T04:58:00.294Z,103786.13
2023-02-06T04:58:51.754Z,103790.50
2023-02-06T04:59:43.203Z,103794.16
2023-02-06T05:00:35.915Z,103792.50
2023-02-06T05:01:29.286Z,103795.06
2023-02-06T05:02:20.805Z,103800.00
2023-02-06T05:03:12.290Z,103792.88
2023-02-06T05:04:03.898Z,103797.97
2023-02-06T05:04:55.363Z,103801.25
2023-02-06T05:05:46.809Z,103796.00
2023-02-06T05:06:38.362Z,103792.69
2023-02-06T05:07:30.175Z,103790.88
2023-02-06T05:08:22.079Z,103797.97
2023-02-06T05:09:13.807Z,103797.25
2023-02-06T05:10:05.475Z,103797.63
2023-02-06T05:10:57.456Z,103796.34
2023-02-06T05:11:48.982Z,103800.94
2023-02-06T05:12:41.472Z,103797.44
2023-02-06T05:13:34.043Z,103798.16
2023-02-06T05:14:25.874Z,103803.47
2023-02-06T05:15:17.606Z,103808.75
2023-02-06T05:16:11.841Z,103802.91
2023-02-06T05:17:03.480Z,103804.75
2023-02-06T05:17:54.980Z,103803.84
2023-02-06T05:18:46.767Z,103803.13
2023-02-06T05:19:38.319Z,103792.69
2023-02-06T05:20:30.380Z,103797.81
2023-02-06T05:21:23.649Z,103790.88
2023-02-06T05:22:16.920Z,103789.78
2023-02-06T05:23:08.663Z,103793.06
2023-02-06T05:24:00.575Z,103783.38
2023-02-06T05:24:52.145Z,103790.31
2023-02-06T05:25:43.627Z,103790.50
2023-02-06T05:26:35.405Z,103784.88
2023-02-06T05:27:27.298Z,103789.59
2023-02-06T05:28:18.909Z,103778.06
2023-02-06T05:29:10.554Z,103775.88
2023-02-06T05:30:02.471Z,103776.44
2023-02-06T05:30:54.302Z,103774.41
2023-02-06T05:31:46.114Z,103777.50
2023-02-06T05:32:37.664Z,103777.50
2023-02-06T05:33:30.008Z,103782.94
2023-02-06T05:34:21.468Z,103786.97
2023-02-06T05:35:12.985Z,103780.75
2023-02-06T05:36:06.942Z,103787.84
2023-02-06T05:36:58.486Z,103783.81
2023-02-06T05:37:50.250Z,103779.97
2023-02-06T05:38:41.990Z,103780.34
2023-02-06T05:39:33.531Z,103779.41
2023-02-06T05:40:25.056Z,103781.22
2023-02-06T05:41:17.576Z,103784.88
2023-02-06T05:42:09.400Z,103785.06
2023-02-06T05:43:01.011Z,103791.47
2023-02-06T05:43:55.607Z,103794.94
2023-02-06T05:44:47.286Z,103790.72
2023-02-06T05:45:38.917Z,103786.72
2023-02-06T05:46:30.734Z,103783.06
2023-02-06T05:47:22.270Z,103784.16
2023-02-06T05:48:13.974Z,103786.13
2023-02-06T05:49:06.294Z,103784.28
2023-02-06T05:49:57.809Z,103786.47
2023-02-06T05:50:50.374Z,103789.00
2023-02-06T05:51:41.823Z,103780.94
2023-02-06T05:52:33.456Z,103776.94
2023-02-06T05:53:25.286Z,103775.47
2023-02-06T05:54:18.412Z,103775.28
2023-02-06T05:55:10.352Z,103772.16
2023-02-06T05:56:02.026Z,103771.44
2023-02-06T05:56:54.078Z,103773.41
2023-02-06T05:57:45.558Z,103769.03
2023-02-06T05:58:37.176Z,103774.72
2023-02-06T05:59:28.643Z,103772.72
2023-02-06T06:00:20.310Z,103773.66
2023-02-06T06:01:13.426Z,103770.34
2023-02-06T06:02:05.002Z,103770.69
2023-02-06T06:02:56.704Z,103763.38
2023-02-06T06:03:48.279Z,103765.34
2023-02-06T06:04:39.741Z,103762.25
2023-02-06T06:05:31.394Z,103763.47
2023-02-06T06:06:22.913Z,103759.28
2023-02-06T06:07:14.935Z,103765.28
2023-02-06T06:08:06.935Z,103758.69
2023-02-06T06:09:01.445Z,103753.78
2023-02-06T06:09:53.270Z,103762.53
2023-02-06T06:10:44.750Z,103763.63
2023-02-06T06:11:36.191Z,103766.38
2023-02-06T06:12:27.657Z,103772.38
2023-02-06T06:13:19.364Z,103766.38
2023-02-06T06:14:12.034Z,103764.91
2023-02-06T06:15:03.799Z,103769.44
2023-02-06T06:15:55.620Z,103764.31
2023-02-06T06:16:47.317Z,103762.81
2023-02-06T06:17:38.718Z,103759.38
2023-02-06T06:18:30.157Z,103764.66
2023-02-06T06:19:21.729Z,103765.59
2023-02-06T06:20:13.227Z,103765.00
2023-02-06T06:21:04.858Z,103765.00
2023-02-06T06:21:58.228Z,103769.38
2023-02-06T06:22:50.238Z,103764.44
2023-02-06T06:23:41.671Z,103758.38
2023-02-06T06:24:33.254Z,103763.59
2023-02-06T06:25:24.755Z,103763.94
2023-02-06T06:26:17.378Z,103757.00
2023-02-06T06:27:10.848Z,103765.25
2023-02-06T06:28:02.503Z,103765.81
2023-02-06T06:28:54.016Z,103756.16
2023-02-06T06:29:45.671Z,103751.78
2023-02-06T06:30:37.827Z,103762.03
2023-02-06T06:31:29.374Z,103752.50
2023-02-06T06:32:20.896Z,103760.19
2023-02-06T06:33:14.142Z,103761.28
2023-02-06T06:34:05.677Z,103762.91
2023-02-06T06:34:57.267Z,103762.38
2023-02-06T06:35:48.657Z,103763.25
2023-02-06T06:36:40.159Z,103766.75
2023-02-06T06:37:31.594Z,103767.63
2023-02-06T06:38:23.604Z,103770.38
2023-02-06T06:39:15.067Z,103774.94
2023-02-06T06:40:06.933Z,103767.44
2023-02-06T06:40:58.655Z,103767.44
2023-02-06T06:41:50.122Z,103768.66
2023-02-06T06:42:41.554Z,103772.66
2023-02-06T06:43:33.597Z,103773.91
2023-02-06T06:44:25.214Z,103781.06
2023-02-06T06:45:16.694Z,103780.66
2023-02-06T06:46:08.795Z,103780.25
2023-02-06T06:47:00.537Z,103781.13
2023-02-06T06:47:52.355Z,103782.97
2023-02-06T06:48:43.803Z,103788.75
2023-02-06T06:49:35.232Z,103789.84
2023-02-06T06:50:26.834Z,103780.53
2023-02-06T06:51:18.446Z,103779.97
2023-02-06T06:52:22.984Z,103779.78
2023-02-06T06:53:16.146Z,103769.19
2023-02-06T06:54:07.587Z,103771.56
2023-02-06T06:54:59.046Z,103769.94
2023-02-06T06:55:50.715Z,103773.22
2023-02-06T06:56:42.328Z,103770.66
2023-02-06T06:57:34.390Z,103767.38
2023-02-06T06:58:25.814Z,103775.94
2023-02-06T06:59:17.286Z,103771.75
2023-02-06T07:00:09.633Z,103766.63
2023-02-06T07:01:02.210Z,103771.00
2023-02-06T07:01:54.017Z,103771.00
2023-02-06T07:02:45.453Z,103767.88
2023-02-06T07:03:37.080Z,103772.59
2023-02-06T07:04:30.756Z,103771.13
2023-02-06T07:05:22.437Z,103775.66
2023-02-06T07:06:15.764Z,103768.91
2023-02-06T07:07:07.340Z,103765.59
2023-02-06T07:07:59.009Z,103766.66
2023-02-06T07:08:50.463Z,103769.38
2023-02-06T07:09:42.191Z,103767.91
2023-02-06T07:10:33.734Z,103779.09
2023-02-06T07:11:26.094Z,103774.09
2023-02-06T07:12:17.599Z,103766.41
2023-02-06T07:13:09.086Z,103766.00
2023-02-06T07:14:02.251Z,103762.69
2023-02-06T07:14:53.934Z,103766.19
2023-02-06T07:15:45.415Z,103766.53
2023-02-06T07:16:38.124Z,103759.75
2023-02-06T07:17:29.780Z,103768.19
2023-02-06T07:18:21.514Z,103764.69
2023-02-06T07:19:13.026Z,103768.00
2023-02-06T07:20:04.867Z,103764.69
2023-02-06T07:20:56.291Z,103768.94
2023-02-06T07:21:48.037Z,103770.75
2023-02-06T07:22:39.442Z,103769.28
2023-02-06T07:24:22.453Z,103772.72
2023-02-06T07:25:14.017Z,103776.38
2023-02-06T07:26:05.935Z,103769.41
2023-02-06T07:26:57.996Z,103771.84
2023-02-06T07:27:49.464Z,103776.38
2023-02-06T07:28:44.474Z,103778.19
2023-02-06T07:29:36.201Z,103774.00
2023-02-06T07:30:27.916Z,103776.56
2023-02-06T07:31:19.424Z,103776.88
2023-02-06T07:32:11.707Z,103780.19
2023-02-06T07:33:06.578Z,103774.88
2023-02-06T07:33:58.083Z,103779.25
2023-02-06T07:34:49.480Z,103774.88
2023-02-06T07:35:41.810Z,103769.75
2023-02-06T07:36:33.428Z,103772.50
2023-02-06T07:37:24.906Z,103769.34
2023-02-06T07:38:16.389Z,103762.38
2023-02-06T07:39:08.139Z,103762.91
2023-02-06T07:39:59.524Z,103771.50
2023-02-06T07:40:51.223Z,103767.94
2023-02-06T07:41:42.998Z,103775.84
2023-02-06T07:42:35.104Z,103771.94
2023-02-06T07:43:35.082Z,103778.88
2023-02-06T07:44:26.517Z,103779.22
2023-02-06T07:45:17.987Z,103778.47
2023-02-06T07:46:09.481Z,103784.66
2023-02-06T07:47:00.911Z,103775.47
2023-02-06T07:47:52.517Z,103780.78
2023-02-06T07:48:43.989Z,103773.25
2023-02-06T07:49:35.934Z,103775.25
2023-02-06T07:50:27.402Z,103766.81
2023-02-06T07:51:19.160Z,103774.66
2023-02-06T07:52:10.594Z,103766.22
2023-02-06T07:53:02.523Z,103767.63
2023-02-06T07:53:54.216Z,103770.03
2023-02-06T07:54:45.859Z,103773.66
2023-02-06T07:55:38.301Z,103770.84
2023-02-06T07:56:29.881Z,103761.06
2023-02-06T07:57:21.495Z,103771.09
2023-02-06T07:58:13.290Z,103761.72
2023-02-06T07:59:05.861Z,103767.69
2023-02-06T07:59:57.567Z,103762.88
2023-02-06T08:00:49.029Z,103767.44
2023-02-06T08:01:40.722Z,103758.56
2023-02-06T08:02:32.426Z,103762.34
2023-02-06T08:03:23.928Z,103765.97
2023-02-06T08:04:15.378Z,103767.06
2023-02-06T08:05:07.639Z,103766.31
2023-02-06T08:05:59.444Z,103766.47
2023-02-06T08:06:51.056Z,103765.91
2023-02-06T08:07:42.699Z,103764.22
2023-02-06T08:08:34.073Z,103764.97
2023-02-06T08:09:25.471Z,103764.09
2023-02-06T08:10:17.204Z,103757.59
2023-02-06T08:11:11.887Z,103754.59
2023-02-06T08:12:03.515Z,103761.53
2023-02-06T08:12:55.045Z,103758.22
2023-02-06T08:13:47.985Z,103757.47
2023-02-06T08:14:39.620Z,103767.00
2023-02-06T08:15:31.462Z,103755.09
2023-02-06T08:16:23.887Z,103760.38
2023-02-06T08:17:17.486Z,103762.38
2023-02-06T08:18:09.770Z,103761.75
2023-02-06T08:19:01.463Z,103763.19
2023-02-06T08:19:52.929Z,103762.88
2023-02-06T08:20:44.367Z,103763.69
2023-02-06T08:21:35.818Z,103771.56
2023-02-06T08:22:29.753Z,103777.63
2023-02-06T08:23:21.349Z,103773.97
2023-02-06T08:24:13.141Z,103774.41
2023-02-06T08:25:05.296Z,103768.03
2023-02-06T08:26:09.034Z,103760.59
2023-02-06T08:27:00.741Z,103769.22
2023-02-06T08:27:55.946Z,103764.06
2023-02-06T08:28:49.604Z,103757.28
2023-02-06T08:29:42.879Z,103761.81
2023-02-06T08:30:34.735Z,103757.59
2023-02-06T08:31:32.515Z,103769.09
2023-02-06T08:32:24.280Z,103760.81
2023-02-06T08:33:15.973Z,103767.59
2023-02-06T08:34:12.023Z,103773.53
2023-02-06T08:35:03.459Z,103779.19
2023-02-06T08:35:55.047Z,103778.09
2023-02-06T08:36:46.905Z,103787.63
2023-02-06T08:37:38.333Z,103778.25
2023-02-06T08:38:29.866Z,103782.94
2023-02-06T08:39:21.539Z,103789.34
2023-02-06T08:40:13.202Z,103782.25
2023-02-06T08:41:05.970Z,103778.94
2023-02-06T08:41:57.713Z,103779.56
2023-02-06T08:42:51.143Z,103774.72
2023-02-06T08:43:44.717Z,103777.47
2023-02-06T08:44:36.302Z,103773.84
2023-02-06T08:45:27.733Z,103773.09
2023-02-06T08:46:21.979Z,103774.03
2023-02-06T08:47:13.485Z,103773.41
2023-02-06T08:48:05.285Z,103769.19
2023-02-06T08:49:04.723Z,103762.69
2023-02-06T08:49:56.322Z,103769.94
2023-02-06T08:50:48.090Z,103770.56
2023-02-06T08:51:39.802Z,103774.66
2023-02-06T08:52:31.269Z,103770.09
2023-02-06T08:53:22.772Z,103777.22
2023-02-06T08:54:17.909Z,103774.47
2023-02-06T08:55:09.296Z,103777.34
2023-02-06T08:56:04.094Z,103778.00
2023-02-06T08:57:01.115Z,103774.81
2023-02-06T08:57:52.773Z,103776.63
2023-02-06T08:58:44.335Z,103777.09
2023-02-06T08:59:35.806Z,103780.59
2023-02-06T09:00:27.966Z,103777.53
2023-02-06T09:01:20.308Z,103775.53
2023-02-06T09:02:11.845Z,103771.75
2023-02-06T09:03:05.428Z,103771.59
2023-02-06T09:03:59.350Z,103781.13
2023-02-06T09:04:51.014Z,103779.28
2023-02-06T09:05:42.521Z,103775.03
2023-02-06T09:06:36.254Z,103782.94
2023-02-06T09:07:27.694Z,103782.00
2023-02-06T09:08:19.223Z,103783.69
2023-02-06T09:09:12.071Z,103780.94
2023-02-06T09:10:03.932Z,103779.13
2023-02-06T09:10:56.338Z,103780.03
2023-02-06T09:11:47.816Z,103773.97
2023-02-06T09:12:39.546Z,103778.53
2023-02-06T09:13:32.125Z,103777.94
2023-02-06T09:14:23.658Z,103778.25
2023-02-06T09:15:15.227Z,103780.22
2023-02-06T09:16:08.097Z,103781.28
2023-02-06T09:16:59.726Z,103777.34
2023-02-06T09:17:51.150Z,103784.66
2023-02-06T09:18:42.755Z,103787.97
2023-02-06T09:19:34.551Z,103781.13
2023-02-06T09:20:29.036Z,103783.69
2023-02-06T09:21:24.261Z,103788.84
2023-02-06T09:22:16.775Z,103786.88
2023-02-06T09:23:08.465Z,103785.06
2023-02-06T09:24:04.314Z,103786.13
2023-02-06T09:24:55.841Z,103789.16
2023-02-06T09:25:47.296Z,103787.91
2023-02-06T09:26:58.621Z,103789.91
2023-02-06T09:27:51.139Z,103788.06
2023-02-06T09:28:42.650Z,103788.22
2023-02-06T09:29:34.435Z,103794.13
2023-02-06T09:30:26.197Z,103792.16
2023-02-06T09:31:17.785Z,103791.53
2023-02-06T09:32:09.602Z,103788.81
2023-02-06T09:33:01.359Z,103785.19
2023-02-06T09:33:53.140Z,103790.66
2023-02-06T09:34:44.599Z,103786.56
2023-02-06T09:35:36.504Z,103786.88
2023-02-06T09:36:30.431Z,103792.91
2023-02-06T09:37:22.689Z,103778.56
2023-02-06T09:38:14.179Z,103773.88
2023-02-06T09:39:08.631Z,103776.94
2023-02-06T09:40:00.130Z,103781.03
2023-02-06T09:40:56.004Z,103778.63
2023-02-06T09:41:49.766Z,103780.16
2023-02-06T09:42:42.384Z,103773.63
2023-02-06T09:43:35.808Z,103783.47
2023-02-06T09:44:27.309Z,103771.94
2023-02-06T09:45:22.819Z,103777.66
2023-02-06T09:46:21.344Z,103779.34
2023-02-06T09:47:33.021Z,103779.34
2023-02-06T09:48:30.646Z,103785.38
2023-02-06T09:49:30.387Z,103783.75
2023-02-06T09:50:34.917Z,103779.84
2023-02-06T09:52:12.619Z,103784.53
2023-02-06T09:53:31.697Z,103777.25
2023-02-06T09:54:47.472Z,103778.78
2023-02-06T09:55:44.037Z,103773.19
2023-02-06T09:56:48.774Z,103778.31
2023-02-06T09:58:22.349Z,103770.28
2023-02-06T09:59:27.537Z,103770.47
2023-02-06T10:00:37.765Z,103771.53
2023-02-06T10:01:59.882Z,103770.78
2023-02-06T10:03:38.836Z,103765.31
2023-02-06T10:04:55.525Z,103764.44
2023-02-06T10:06:10.048Z,103763.69
2023-02-06T10:07:30.219Z,103766.59
2023-02-06T10:08:27.825Z,103766.00
2023-02-06T10:09:41.019Z,103762.34
2023-02-06T10:10:42.287Z,103761.16
2023-02-06T10:11:55.289Z,103765.97
2023-02-06T10:13:05.222Z,103761.59
2023-02-06T10:14:02.160Z,103755.97
2023-02-06T10:15:04.334Z,103760.78
2023-02-06T10:16:43.532Z,103759.53
2023-02-06T10:17:48.632Z,103759.06
2023-02-06T10:18:46.974Z,103764.69
2023-02-06T10:19:46.766Z,103758.31
2023-02-06T10:20:50.281Z,103749.50
2023-02-06T10:21:53.672Z,103751.34
2023-02-06T10:23:18.450Z,103755.16
2023-02-06T10:24:22.145Z,103750.13
2023-02-06T10:25:25.342Z,103755.91